sensor_id;sensor_type;location;lat;lon;timestamp;temperature;humidity
30520;DHT22;17300;50.374;8.006;2023-09-19T00:02:04;21.60;61.10
30520;DHT22;17300;50.374;8.006;2023-09-19T00:04:31;21.50;61.20
30520;DHT22;17300;50.374;8.006;2023-09-19T00:06:58;21.60;61.30
30520;DHT22;17300;50.374;8.006;2023-09-19T00:09:25;21.50;61.50
30520;DHT22;17300;50.374;8.006;2023-09-19T00:11:52;21.50;61.40
30520;DHT22;17300;50.374;8.006;2023-09-19T00:14:19;21.50;61.20
30520;DHT22;17300;50.374;8.006;2023-09-19T00:16:49;21.40;61.10
30520;DHT22;17300;50.374;8.006;2023-09-19T00:19:18;21.40;60.90
30520;DHT22;17300;50.374;8.006;2023-09-19T00:21:44;21.40;61.00
30520;DHT22;17300;50.374;8.006;2023-09-19T00:24:12;21.30;61.00
30520;DHT22;17300;50.374;8.006;2023-09-19T00:26:39;21.30;61.30
30520;DHT22;17300;50.374;8.006;2023-09-19T00:29:06;21.20;61.40
30520;DHT22;17300;50.374;8.006;2023-09-19T00:31:34;21.20;61.70
30520;DHT22;17300;50.374;8.006;2023-09-19T00:34:03;21.20;61.90
30520;DHT22;17300;50.374;8.006;2023-09-19T00:36:37;21.20;61.90
30520;DHT22;17300;50.374;8.006;2023-09-19T00:39:05;21.10;61.90
30520;DHT22;17300;50.374;8.006;2023-09-19T00:41:32;21.10;61.70
30520;DHT22;17300;50.374;8.006;2023-09-19T00:44:01;21.10;61.70
30520;DHT22;17300;50.374;8.006;2023-09-19T00:46:29;21.10;61.80
30520;DHT22;17300;50.374;8.006;2023-09-19T00:48:58;21.00;61.70
30520;DHT22;17300;50.374;8.006;2023-09-19T00:51:25;21.00;61.80
30520;DHT22;17300;50.374;8.006;2023-09-19T00:53:54;20.90;62.00
30520;DHT22;17300;50.374;8.006;2023-09-19T00:56:21;20.90;62.00
30520;DHT22;17300;50.374;8.006;2023-09-19T00:58:48;20.80;62.00
30520;DHT22;17300;50.374;8.006;2023-09-19T01:01:15;20.80;61.90
30520;DHT22;17300;50.374;8.006;2023-09-19T01:03:42;20.80;61.90
30520;DHT22;17300;50.374;8.006;2023-09-19T01:06:10;20.80;61.90
30520;DHT22;17300;50.374;8.006;2023-09-19T01:08:37;20.70;62.10
30520;DHT22;17300;50.374;8.006;2023-09-19T01:11:12;20.70;62.10
30520;DHT22;17300;50.374;8.006;2023-09-19T01:13:48;20.60;62.60
30520;DHT22;17300;50.374;8.006;2023-09-19T01:16:28;20.60;62.70
30520;DHT22;17300;50.374;8.006;2023-09-19T01:19:01;20.60;62.90
30520;DHT22;17300;50.374;8.006;2023-09-19T01:21:42;20.50;62.80
30520;DHT22;17300;50.374;8.006;2023-09-19T01:24:34;20.50;62.80
30520;DHT22;17300;50.374;8.006;2023-09-19T01:27:30;20.50;63.60
30520;DHT22;17300;50.374;8.006;2023-09-19T01:30:10;20.50;63.50
30520;DHT22;17300;50.374;8.006;2023-09-19T01:32:40;20.40;63.20
30520;DHT22;17300;50.374;8.006;2023-09-19T01:35:08;20.40;62.70
30520;DHT22;17300;50.374;8.006;2023-09-19T01:37:38;20.40;62.80
30520;DHT22;17300;50.374;8.006;2023-09-19T01:40:11;20.40;62.80
30520;DHT22;17300;50.374;8.006;2023-09-19T01:42:45;20.30;62.90
30520;DHT22;17300;50.374;8.006;2023-09-19T01:45:22;20.30;62.90
30520;DHT22;17300;50.374;8.006;2023-09-19T01:47:52;20.30;63.50
30520;DHT22;17300;50.374;8.006;2023-09-19T01:50:27;20.30;63.20
30520;DHT22;17300;50.374;8.006;2023-09-19T01:52:59;20.30;63.40
30520;DHT22;17300;50.374;8.006;2023-09-19T01:55:30;20.20;63.10
30520;DHT22;17300;50.374;8.006;2023-09-19T01:58:16;20.20;62.90
30520;DHT22;17300;50.374;8.006;2023-09-19T02:00:48;20.20;63.40
30520;DHT22;17300;50.374;8.006;2023-09-19T02:03:17;20.20;63.40
30520;DHT22;17300;50.374;8.006;2023-09-19T02:05:48;20.20;63.00
30520;DHT22;17300;50.374;8.006;2023-09-19T02:08:16;20.20;63.40
30520;DHT22;17300;50.374;8.006;2023-09-19T02:10:43;20.10;63.00
30520;DHT22;17300;50.374;8.006;2023-09-19T02:13:15;20.10;62.70
30520;DHT22;17300;50.374;8.006;2023-09-19T02:15:45;20.10;62.60
30520;DHT22;17300;50.374;8.006;2023-09-19T02:18:12;20.10;62.50
30520;DHT22;17300;50.374;8.006;2023-09-19T02:20:40;20.10;62.50
30520;DHT22;17300;50.374;8.006;2023-09-19T02:23:07;20.10;62.60
30520;DHT22;17300;50.374;8.006;2023-09-19T02:25:34;20.10;62.60
30520;DHT22;17300;50.374;8.006;2023-09-19T02:28:01;20.10;62.70
30520;DHT22;17300;50.374;8.006;2023-09-19T02:30:29;20.10;62.50
30520;DHT22;17300;50.374;8.006;2023-09-19T02:32:57;20.10;62.50
30520;DHT22;17300;50.374;8.006;2023-09-19T02:35:27;20.00;62.60
30520;DHT22;17300;50.374;8.006;2023-09-19T02:37:53;20.00;62.60
30520;DHT22;17300;50.374;8.006;2023-09-19T02:40:20;20.00;62.80
30520;DHT22;17300;50.374;8.006;2023-09-19T02:42:48;20.00;62.80
30520;DHT22;17300;50.374;8.006;2023-09-19T02:45:16;20.00;62.80
30520;DHT22;17300;50.374;8.006;2023-09-19T02:47:44;20.00;62.80
30520;DHT22;17300;50.374;8.006;2023-09-19T02:50:12;20.00;62.80
30520;DHT22;17300;50.374;8.006;2023-09-19T02:52:41;19.90;62.80
30520;DHT22;17300;50.374;8.006;2023-09-19T02:55:09;19.90;62.80
30520;DHT22;17300;50.374;8.006;2023-09-19T02:57:37;19.90;62.80
30520;DHT22;17300;50.374;8.006;2023-09-19T03:00:07;19.90;62.80
30520;DHT22;17300;50.374;8.006;2023-09-19T03:02:36;19.90;63.00
30520;DHT22;17300;50.374;8.006;2023-09-19T03:05:04;19.90;63.00
30520;DHT22;17300;50.374;8.006;2023-09-19T03:07:32;19.80;63.00
30520;DHT22;17300;50.374;8.006;2023-09-19T03:09:59;19.80;63.10
30520;DHT22;17300;50.374;8.006;2023-09-19T03:12:26;19.80;63.00
30520;DHT22;17300;50.374;8.006;2023-09-19T03:14:53;19.80;63.10
30520;DHT22;17300;50.374;8.006;2023-09-19T03:17:20;19.80;63.20
30520;DHT22;17300;50.374;8.006;2023-09-19T03:19:47;19.80;63.20
30520;DHT22;17300;50.374;8.006;2023-09-19T03:22:14;19.80;63.40
30520;DHT22;17300;50.374;8.006;2023-09-19T03:24:43;19.80;63.30
30520;DHT22;17300;50.374;8.006;2023-09-19T03:27:10;19.80;63.50
30520;DHT22;17300;50.374;8.006;2023-09-19T03:29:41;19.80;63.50
30520;DHT22;17300;50.374;8.006;2023-09-19T03:32:08;19.90;63.50
30520;DHT22;17300;50.374;8.006;2023-09-19T03:34:36;19.90;64.30
30520;DHT22;17300;50.374;8.006;2023-09-19T03:37:04;20.00;63.50
30520;DHT22;17300;50.374;8.006;2023-09-19T03:39:30;20.00;63.40
30520;DHT22;17300;50.374;8.006;2023-09-19T03:41:58;20.00;63.10
30520;DHT22;17300;50.374;8.006;2023-09-19T03:44:25;20.00;62.80
30520;DHT22;17300;50.374;8.006;2023-09-19T03:46:52;20.10;62.70
30520;DHT22;17300;50.374;8.006;2023-09-19T03:49:20;20.10;62.40
30520;DHT22;17300;50.374;8.006;2023-09-19T03:51:47;20.10;62.30
30520;DHT22;17300;50.374;8.006;2023-09-19T03:54:14;20.10;62.30
30520;DHT22;17300;50.374;8.006;2023-09-19T03:56:42;20.10;62.10
30520;DHT22;17300;50.374;8.006;2023-09-19T03:59:10;20.10;61.90
30520;DHT22;17300;50.374;8.006;2023-09-19T04:01:37;20.10;61.80
30520;DHT22;17300;50.374;8.006;2023-09-19T04:04:06;20.10;61.90
30520;DHT22;17300;50.374;8.006;2023-09-19T04:06:34;20.10;61.90
30520;DHT22;17300;50.374;8.006;2023-09-19T04:09:01;20.00;61.80
30520;DHT22;17300;50.374;8.006;2023-09-19T04:11:29;20.10;62.10
30520;DHT22;17300;50.374;8.006;2023-09-19T04:13:55;20.00;62.00
30520;DHT22;17300;50.374;8.006;2023-09-19T04:16:23;20.00;62.20
30520;DHT22;17300;50.374;8.006;2023-09-19T04:18:50;20.00;62.30
30520;DHT22;17300;50.374;8.006;2023-09-19T04:21:16;20.00;62.30
30520;DHT22;17300;50.374;8.006;2023-09-19T04:23:45;19.90;62.30
30520;DHT22;17300;50.374;8.006;2023-09-19T04:26:11;19.90;62.30
30520;DHT22;17300;50.374;8.006;2023-09-19T04:28:38;19.90;62.20
30520;DHT22;17300;50.374;8.006;2023-09-19T04:31:06;19.90;62.30
30520;DHT22;17300;50.374;8.006;2023-09-19T04:33:35;19.90;62.50
30520;DHT22;17300;50.374;8.006;2023-09-19T04:36:02;19.80;62.30
30520;DHT22;17300;50.374;8.006;2023-09-19T04:38:30;19.80;62.10
30520;DHT22;17300;50.374;8.006;2023-09-19T04:40:57;19.80;62.10
30520;DHT22;17300;50.374;8.006;2023-09-19T04:43:25;19.70;62.00
30520;DHT22;17300;50.374;8.006;2023-09-19T04:45:52;19.80;62.10
30520;DHT22;17300;50.374;8.006;2023-09-19T04:48:21;19.80;62.30
30520;DHT22;17300;50.374;8.006;2023-09-19T04:50:50;19.70;63.00
30520;DHT22;17300;50.374;8.006;2023-09-19T04:53:17;19.70;62.40
30520;DHT22;17300;50.374;8.006;2023-09-19T04:55:50;19.70;62.40
30520;DHT22;17300;50.374;8.006;2023-09-19T04:58:18;19.70;62.70
30520;DHT22;17300;50.374;8.006;2023-09-19T05:00:45;19.70;62.60
30520;DHT22;17300;50.374;8.006;2023-09-19T05:03:11;19.70;62.80
30520;DHT22;17300;50.374;8.006;2023-09-19T05:05:38;19.70;62.80
30520;DHT22;17300;50.374;8.006;2023-09-19T05:08:07;19.70;63.10
30520;DHT22;17300;50.374;8.006;2023-09-19T05:10:35;19.60;63.00
30520;DHT22;17300;50.374;8.006;2023-09-19T05:13:03;19.70;63.20
30520;DHT22;17300;50.374;8.006;2023-09-19T05:15:30;19.60;63.20
30520;DHT22;17300;50.374;8.006;2023-09-19T05:17:57;19.70;63.50
30520;DHT22;17300;50.374;8.006;2023-09-19T05:20:24;19.70;63.50
30520;DHT22;17300;50.374;8.006;2023-09-19T05:22:58;19.70;63.40
30520;DHT22;17300;50.374;8.006;2023-09-19T05:25:28;19.70;63.00
30520;DHT22;17300;50.374;8.006;2023-09-19T05:27:57;19.70;62.80
30520;DHT22;17300;50.374;8.006;2023-09-19T05:30:24;19.70;62.70
30520;DHT22;17300;50.374;8.006;2023-09-19T05:32:52;19.80;62.60
30520;DHT22;17300;50.374;8.006;2023-09-19T05:35:19;19.70;62.40
30520;DHT22;17300;50.374;8.006;2023-09-19T05:37:47;19.80;62.60
30520;DHT22;17300;50.374;8.006;2023-09-19T05:40:14;19.80;62.70
30520;DHT22;17300;50.374;8.006;2023-09-19T05:42:42;19.80;62.70
30520;DHT22;17300;50.374;8.006;2023-09-19T05:45:09;19.80;62.90
30520;DHT22;17300;50.374;8.006;2023-09-19T05:47:38;19.80;63.00
30520;DHT22;17300;50.374;8.006;2023-09-19T05:50:06;19.80;62.90
30520;DHT22;17300;50.374;8.006;2023-09-19T05:52:34;19.80;63.00
30520;DHT22;17300;50.374;8.006;2023-09-19T05:55:01;19.80;63.00
30520;DHT22;17300;50.374;8.006;2023-09-19T05:57:30;19.80;63.20
30520;DHT22;17300;50.374;8.006;2023-09-19T05:59:59;19.80;63.10
30520;DHT22;17300;50.374;8.006;2023-09-19T06:02:26;19.90;63.20
30520;DHT22;17300;50.374;8.006;2023-09-19T06:04:54;19.90;63.20
30520;DHT22;17300;50.374;8.006;2023-09-19T06:07:21;19.90;63.20
30520;DHT22;17300;50.374;8.006;2023-09-19T06:09:48;19.90;63.20
30520;DHT22;17300;50.374;8.006;2023-09-19T06:12:15;20.00;63.10
30520;DHT22;17300;50.374;8.006;2023-09-19T06:14:42;20.00;63.10
30520;DHT22;17300;50.374;8.006;2023-09-19T06:17:10;20.00;63.10
30520;DHT22;17300;50.374;8.006;2023-09-19T06:19:37;20.10;63.20
30520;DHT22;17300;50.374;8.006;2023-09-19T06:22:04;20.10;63.10
30520;DHT22;17300;50.374;8.006;2023-09-19T06:24:30;20.20;63.20
30520;DHT22;17300;50.374;8.006;2023-09-19T06:26:57;20.20;63.10
30520;DHT22;17300;50.374;8.006;2023-09-19T06:29:26;20.30;63.50
30520;DHT22;17300;50.374;8.006;2023-09-19T06:31:53;20.40;63.40
30520;DHT22;17300;50.374;8.006;2023-09-19T06:34:21;20.40;63.20
30520;DHT22;17300;50.374;8.006;2023-09-19T06:36:48;20.40;63.40
30520;DHT22;17300;50.374;8.006;2023-09-19T06:39:14;20.50;63.30
30520;DHT22;17300;50.374;8.006;2023-09-19T06:41:42;20.60;63.20
30520;DHT22;17300;50.374;8.006;2023-09-19T06:44:08;20.70;63.50
30520;DHT22;17300;50.374;8.006;2023-09-19T06:46:36;20.80;63.40
30520;DHT22;17300;50.374;8.006;2023-09-19T06:49:06;20.80;63.50
30520;DHT22;17300;50.374;8.006;2023-09-19T06:51:34;20.90;63.50
30520;DHT22;17300;50.374;8.006;2023-09-19T06:54:01;21.00;63.50
30520;DHT22;17300;50.374;8.006;2023-09-19T06:56:30;21.10;63.40
30520;DHT22;17300;50.374;8.006;2023-09-19T06:58:57;21.20;62.90
30520;DHT22;17300;50.374;8.006;2023-09-19T07:01:24;21.30;62.70
30520;DHT22;17300;50.374;8.006;2023-09-19T07:03:50;21.40;62.40
30520;DHT22;17300;50.374;8.006;2023-09-19T07:06:18;21.50;62.10
30520;DHT22;17300;50.374;8.006;2023-09-19T07:08:46;21.60;61.80
30520;DHT22;17300;50.374;8.006;2023-09-19T07:11:14;21.70;61.90
30520;DHT22;17300;50.374;8.006;2023-09-19T07:13:41;21.80;62.00
30520;DHT22;17300;50.374;8.006;2023-09-19T07:16:07;21.90;61.70
30520;DHT22;17300;50.374;8.006;2023-09-19T07:18:35;22.00;61.30
30520;DHT22;17300;50.374;8.006;2023-09-19T07:21:03;22.10;61.00
30520;DHT22;17300;50.374;8.006;2023-09-19T07:23:31;22.20;60.70
30520;DHT22;17300;50.374;8.006;2023-09-19T07:26:01;22.30;60.50
30520;DHT22;17300;50.374;8.006;2023-09-19T07:28:30;22.40;60.20
30520;DHT22;17300;50.374;8.006;2023-09-19T07:31:01;22.50;59.90
30520;DHT22;17300;50.374;8.006;2023-09-19T07:33:28;22.60;59.80
30520;DHT22;17300;50.374;8.006;2023-09-19T07:35:55;22.70;60.10
30520;DHT22;17300;50.374;8.006;2023-09-19T07:38:21;22.80;59.90
30520;DHT22;17300;50.374;8.006;2023-09-19T07:40:48;22.90;59.60
30520;DHT22;17300;50.374;8.006;2023-09-19T07:43:16;22.90;57.50
30520;DHT22;17300;50.374;8.006;2023-09-19T07:45:43;23.10;58.60
30520;DHT22;17300;50.374;8.006;2023-09-19T07:48:10;23.30;58.50
30520;DHT22;17300;50.374;8.006;2023-09-19T07:50:40;23.50;58.50
30520;DHT22;17300;50.374;8.006;2023-09-19T07:53:09;23.60;58.40
30520;DHT22;17300;50.374;8.006;2023-09-19T07:55:38;23.80;58.50
30520;DHT22;17300;50.374;8.006;2023-09-19T07:58:06;24.10;58.80
30520;DHT22;17300;50.374;8.006;2023-09-19T08:00:34;24.30;58.90
30520;DHT22;17300;50.374;8.006;2023-09-19T08:03:01;24.60;58.70
30520;DHT22;17300;50.374;8.006;2023-09-19T08:05:29;24.90;58.60
30520;DHT22;17300;50.374;8.006;2023-09-19T08:07:56;25.10;58.30
30520;DHT22;17300;50.374;8.006;2023-09-19T08:10:24;25.40;57.90
30520;DHT22;17300;50.374;8.006;2023-09-19T08:12:53;25.70;57.60
30520;DHT22;17300;50.374;8.006;2023-09-19T08:15:23;26.00;57.40
30520;DHT22;17300;50.374;8.006;2023-09-19T08:17:51;26.40;56.70
30520;DHT22;17300;50.374;8.006;2023-09-19T08:20:18;26.60;55.70
30520;DHT22;17300;50.374;8.006;2023-09-19T08:22:47;26.90;55.20
30520;DHT22;17300;50.374;8.006;2023-09-19T08:25:15;27.10;54.40
30520;DHT22;17300;50.374;8.006;2023-09-19T08:27:44;27.30;55.00
30520;DHT22;17300;50.374;8.006;2023-09-19T08:30:13;27.60;54.40
30520;DHT22;17300;50.374;8.006;2023-09-19T08:32:41;27.80;53.70
30520;DHT22;17300;50.374;8.006;2023-09-19T08:35:09;28.10;53.30
30520;DHT22;17300;50.374;8.006;2023-09-19T08:37:36;28.30;52.80
30520;DHT22;17300;50.374;8.006;2023-09-19T08:40:03;28.50;52.50
30520;DHT22;17300;50.374;8.006;2023-09-19T08:42:31;28.70;52.00
30520;DHT22;17300;50.374;8.006;2023-09-19T08:44:59;28.80;51.40
30520;DHT22;17300;50.374;8.006;2023-09-19T08:47:33;29.00;50.90
30520;DHT22;17300;50.374;8.006;2023-09-19T08:50:04;29.10;49.00
30520;DHT22;17300;50.374;8.006;2023-09-19T08:52:41;29.20;49.10
30520;DHT22;17300;50.374;8.006;2023-09-19T08:55:12;29.30;48.80
30520;DHT22;17300;50.374;8.006;2023-09-19T08:57:41;29.30;48.60
30520;DHT22;17300;50.374;8.006;2023-09-19T09:00:13;29.40;49.00
30520;DHT22;17300;50.374;8.006;2023-09-19T09:02:43;29.50;49.10
30520;DHT22;17300;50.374;8.006;2023-09-19T09:05:11;29.60;49.00
30520;DHT22;17300;50.374;8.006;2023-09-19T09:07:37;29.70;48.70
30520;DHT22;17300;50.374;8.006;2023-09-19T09:10:10;29.80;48.40
30520;DHT22;17300;50.374;8.006;2023-09-19T09:12:37;29.90;47.40
30520;DHT22;17300;50.374;8.006;2023-09-19T09:15:05;30.00;48.10
30520;DHT22;17300;50.374;8.006;2023-09-19T09:17:34;30.20;48.30
30520;DHT22;17300;50.374;8.006;2023-09-19T09:20:00;30.40;48.40
30520;DHT22;17300;50.374;8.006;2023-09-19T09:22:27;30.70;48.10
30520;DHT22;17300;50.374;8.006;2023-09-19T09:24:55;31.00;48.00
30520;DHT22;17300;50.374;8.006;2023-09-19T09:27:25;31.40;47.70
30520;DHT22;17300;50.374;8.006;2023-09-19T09:29:53;31.70;47.00
30520;DHT22;17300;50.374;8.006;2023-09-19T09:32:23;32.00;46.30
30520;DHT22;17300;50.374;8.006;2023-09-19T09:34:51;32.30;45.50
30520;DHT22;17300;50.374;8.006;2023-09-19T09:37:19;32.50;44.30
30520;DHT22;17300;50.374;8.006;2023-09-19T09:39:51;32.70;43.60
30520;DHT22;17300;50.374;8.006;2023-09-19T09:42:32;32.80;42.40
30520;DHT22;17300;50.374;8.006;2023-09-19T09:45:14;33.00;41.80
30520;DHT22;17300;50.374;8.006;2023-09-19T09:47:41;33.00;41.00
30520;DHT22;17300;50.374;8.006;2023-09-19T09:50:07;33.20;42.20
30520;DHT22;17300;50.374;8.006;2023-09-19T09:52:45;33.20;41.60
30520;DHT22;17300;50.374;8.006;2023-09-19T09:55:12;33.30;42.20
30520;DHT22;17300;50.374;8.006;2023-09-19T09:57:40;33.50;42.50
30520;DHT22;17300;50.374;8.006;2023-09-19T10:00:10;33.80;42.20
30520;DHT22;17300;50.374;8.006;2023-09-19T10:02:45;34.10;42.10
30520;DHT22;17300;50.374;8.006;2023-09-19T10:05:13;34.40;41.10
30520;DHT22;17300;50.374;8.006;2023-09-19T10:07:47;34.70;40.40
30520;DHT22;17300;50.374;8.006;2023-09-19T10:10:15;34.90;40.20
30520;DHT22;17300;50.374;8.006;2023-09-19T10:13:05;35.10;38.60
30520;DHT22;17300;50.374;8.006;2023-09-19T10:15:33;35.00;37.10
30520;DHT22;17300;50.374;8.006;2023-09-19T10:18:04;34.90;36.40
30520;DHT22;17300;50.374;8.006;2023-09-19T10:20:33;34.70;36.70
30520;DHT22;17300;50.374;8.006;2023-09-19T10:23:07;34.60;36.50
30520;DHT22;17300;50.374;8.006;2023-09-19T10:25:40;34.50;35.60
30520;DHT22;17300;50.374;8.006;2023-09-19T10:28:11;34.30;36.10
30520;DHT22;17300;50.374;8.006;2023-09-19T10:30:41;34.10;35.00
30520;DHT22;17300;50.374;8.006;2023-09-19T10:33:11;33.80;35.10
30520;DHT22;17300;50.374;8.006;2023-09-19T10:35:39;33.60;35.30
30520;DHT22;17300;50.374;8.006;2023-09-19T10:38:07;33.40;35.30
30520;DHT22;17300;50.374;8.006;2023-09-19T10:40:37;33.10;35.20
30520;DHT22;17300;50.374;8.006;2023-09-19T10:43:12;32.90;35.60
30520;DHT22;17300;50.374;8.006;2023-09-19T10:45:40;32.70;35.70
30520;DHT22;17300;50.374;8.006;2023-09-19T10:48:07;32.50;35.60
30520;DHT22;17300;50.374;8.006;2023-09-19T10:50:41;32.40;36.10
30520;DHT22;17300;50.374;8.006;2023-09-19T10:53:11;32.20;36.20
30520;DHT22;17300;50.374;8.006;2023-09-19T10:55:39;32.20;36.80
30520;DHT22;17300;50.374;8.006;2023-09-19T10:58:06;32.20;37.50
30520;DHT22;17300;50.374;8.006;2023-09-19T11:00:54;32.40;38.10
30520;DHT22;17300;50.374;8.006;2023-09-19T11:03:23;32.70;36.80
30520;DHT22;17300;50.374;8.006;2023-09-19T11:06:04;32.90;37.50
30520;DHT22;17300;50.374;8.006;2023-09-19T11:09:01;33.20;36.40
30520;DHT22;17300;50.374;8.006;2023-09-19T11:11:48;33.40;35.20
30520;DHT22;17300;50.374;8.006;2023-09-19T11:14:38;33.50;36.20
30520;DHT22;17300;50.374;8.006;2023-09-19T11:17:34;33.50;34.10
30520;DHT22;17300;50.374;8.006;2023-09-19T11:20:19;33.50;34.30
30520;DHT22;17300;50.374;8.006;2023-09-19T11:23:20;33.40;33.30
30520;DHT22;17300;50.374;8.006;2023-09-19T11:25:52;33.30;33.50
30520;DHT22;17300;50.374;8.006;2023-09-19T11:28:33;33.10;33.40
30520;DHT22;17300;50.374;8.006;2023-09-19T11:36:59;32.40;33.30
30520;DHT22;17300;50.374;8.006;2023-09-19T11:39:27;32.00;33.40
30520;DHT22;17300;50.374;8.006;2023-09-19T11:41:54;31.80;33.90
30520;DHT22;17300;50.374;8.006;2023-09-19T11:44:34;31.40;34.00
30520;DHT22;17300;50.374;8.006;2023-09-19T11:47:04;31.20;33.80
30520;DHT22;17300;50.374;8.006;2023-09-19T11:49:32;31.00;34.60
30520;DHT22;17300;50.374;8.006;2023-09-19T11:52:02;30.80;34.30
30520;DHT22;17300;50.374;8.006;2023-09-19T11:54:31;30.70;34.00
30520;DHT22;17300;50.374;8.006;2023-09-19T11:56:58;30.60;33.80
30520;DHT22;17300;50.374;8.006;2023-09-19T11:59:26;30.40;33.50
30520;DHT22;17300;50.374;8.006;2023-09-19T12:01:55;30.30;33.90
30520;DHT22;17300;50.374;8.006;2023-09-19T12:04:34;30.10;33.90
30520;DHT22;17300;50.374;8.006;2023-09-19T12:07:05;29.90;34.00
30520;DHT22;17300;50.374;8.006;2023-09-19T12:09:35;29.80;34.30
30520;DHT22;17300;50.374;8.006;2023-09-19T12:12:02;29.60;34.20
30520;DHT22;17300;50.374;8.006;2023-09-19T12:14:29;29.40;34.80
30520;DHT22;17300;50.374;8.006;2023-09-19T12:16:57;29.30;34.90
30520;DHT22;17300;50.374;8.006;2023-09-19T12:19:26;29.20;35.40
30520;DHT22;17300;50.374;8.006;2023-09-19T12:21:55;29.00;35.30
30520;DHT22;17300;50.374;8.006;2023-09-19T12:24:25;28.90;35.60
30520;DHT22;17300;50.374;8.006;2023-09-19T12:27:00;28.80;35.90
30520;DHT22;17300;50.374;8.006;2023-09-19T12:29:27;28.70;36.00
30520;DHT22;17300;50.374;8.006;2023-09-19T12:31:56;28.70;35.90
30520;DHT22;17300;50.374;8.006;2023-09-19T12:34:25;28.60;35.50
30520;DHT22;17300;50.374;8.006;2023-09-19T12:37:06;28.50;35.70
30520;DHT22;17300;50.374;8.006;2023-09-19T12:39:39;28.40;35.40
30520;DHT22;17300;50.374;8.006;2023-09-19T12:42:08;28.40;35.40
30520;DHT22;17300;50.374;8.006;2023-09-19T12:44:37;28.30;36.00
30520;DHT22;17300;50.374;8.006;2023-09-19T12:47:14;28.30;35.60
30520;DHT22;17300;50.374;8.006;2023-09-19T12:50:04;28.30;35.30
30520;DHT22;17300;50.374;8.006;2023-09-19T12:52:36;28.20;35.40
30520;DHT22;17300;50.374;8.006;2023-09-19T12:55:04;28.10;35.50
30520;DHT22;17300;50.374;8.006;2023-09-19T12:57:32;28.00;35.40
30520;DHT22;17300;50.374;8.006;2023-09-19T13:00:00;27.90;35.40
30520;DHT22;17300;50.374;8.006;2023-09-19T13:02:27;27.80;35.50
30520;DHT22;17300;50.374;8.006;2023-09-19T13:04:54;27.80;35.80
30520;DHT22;17300;50.374;8.006;2023-09-19T13:07:45;27.70;36.10
30520;DHT22;17300;50.374;8.006;2023-09-19T13:10:16;27.60;36.20
30520;DHT22;17300;50.374;8.006;2023-09-19T13:12:45;27.50;36.50
30520;DHT22;17300;50.374;8.006;2023-09-19T13:15:15;27.50;37.00
30520;DHT22;17300;50.374;8.006;2023-09-19T13:17:46;27.40;37.60
30520;DHT22;17300;50.374;8.006;2023-09-19T13:20:23;27.30;37.60
30520;DHT22;17300;50.374;8.006;2023-09-19T13:22:53;27.30;37.10
30520;DHT22;17300;50.374;8.006;2023-09-19T13:25:25;27.30;37.50
30520;DHT22;17300;50.374;8.006;2023-09-19T13:27:56;27.20;37.60
30520;DHT22;17300;50.374;8.006;2023-09-19T13:30:24;27.20;37.90
30520;DHT22;17300;50.374;8.006;2023-09-19T13:32:51;27.10;37.70
30520;DHT22;17300;50.374;8.006;2023-09-19T13:35:19;27.10;37.80
30520;DHT22;17300;50.374;8.006;2023-09-19T13:37:47;27.00;38.30
30520;DHT22;17300;50.374;8.006;2023-09-19T13:40:15;26.90;38.10
30520;DHT22;17300;50.374;8.006;2023-09-19T13:42:44;26.90;38.10
30520;DHT22;17300;50.374;8.006;2023-09-19T13:45:10;26.80;38.40
30520;DHT22;17300;50.374;8.006;2023-09-19T13:47:41;26.90;39.00
30520;DHT22;17300;50.374;8.006;2023-09-19T13:50:09;26.90;38.80
30520;DHT22;17300;50.374;8.006;2023-09-19T13:52:35;26.90;38.80
30520;DHT22;17300;50.374;8.006;2023-09-19T13:55:04;26.90;38.90
30520;DHT22;17300;50.374;8.006;2023-09-19T13:57:32;26.80;38.50
30520;DHT22;17300;50.374;8.006;2023-09-19T14:00:00;26.80;38.10
30520;DHT22;17300;50.374;8.006;2023-09-19T14:02:27;26.80;37.80
30520;DHT22;17300;50.374;8.006;2023-09-19T14:04:54;26.80;37.80
30520;DHT22;17300;50.374;8.006;2023-09-19T14:07:20;26.70;37.60
30520;DHT22;17300;50.374;8.006;2023-09-19T14:09:47;26.70;37.60
30520;DHT22;17300;50.374;8.006;2023-09-19T14:12:15;26.60;37.70
30520;DHT22;17300;50.374;8.006;2023-09-19T14:14:42;26.60;38.20
30520;DHT22;17300;50.374;8.006;2023-09-19T14:17:12;26.50;38.00
30520;DHT22;17300;50.374;8.006;2023-09-19T14:19:40;26.50;38.40
30520;DHT22;17300;50.374;8.006;2023-09-19T14:22:09;26.40;38.00
30520;DHT22;17300;50.374;8.006;2023-09-19T14:24:36;26.40;37.70
30520;DHT22;17300;50.374;8.006;2023-09-19T14:27:04;26.30;38.10
30520;DHT22;17300;50.374;8.006;2023-09-19T14:29:32;26.30;37.70
30520;DHT22;17300;50.374;8.006;2023-09-19T14:31:58;26.20;37.50
30520;DHT22;17300;50.374;8.006;2023-09-19T14:34:27;26.20;37.60
30520;DHT22;17300;50.374;8.006;2023-09-19T14:36:54;26.10;37.40
30520;DHT22;17300;50.374;8.006;2023-09-19T14:39:20;26.00;37.40
30520;DHT22;17300;50.374;8.006;2023-09-19T14:41:48;25.90;37.60
30520;DHT22;17300;50.374;8.006;2023-09-19T14:44:15;25.90;37.80
30520;DHT22;17300;50.374;8.006;2023-09-19T14:46:42;25.70;37.50
30520;DHT22;17300;50.374;8.006;2023-09-19T14:49:09;25.70;37.60
30520;DHT22;17300;50.374;8.006;2023-09-19T14:51:38;25.70;37.60
30520;DHT22;17300;50.374;8.006;2023-09-19T14:54:06;25.60;37.50
30520;DHT22;17300;50.374;8.006;2023-09-19T14:56:33;25.60;37.90
30520;DHT22;17300;50.374;8.006;2023-09-19T14:59:00;25.50;37.80
30520;DHT22;17300;50.374;8.006;2023-09-19T15:01:28;25.50;38.00
30520;DHT22;17300;50.374;8.006;2023-09-19T15:03:54;25.40;38.10
30520;DHT22;17300;50.374;8.006;2023-09-19T15:06:21;25.40;38.00
30520;DHT22;17300;50.374;8.006;2023-09-19T15:08:49;25.40;38.00
30520;DHT22;17300;50.374;8.006;2023-09-19T15:11:16;25.40;38.50
30520;DHT22;17300;50.374;8.006;2023-09-19T15:13:44;25.40;38.50
30520;DHT22;17300;50.374;8.006;2023-09-19T15:16:11;25.40;38.80
30520;DHT22;17300;50.374;8.006;2023-09-19T15:18:39;25.30;39.00
30520;DHT22;17300;50.374;8.006;2023-09-19T15:21:07;25.30;39.20
30520;DHT22;17300;50.374;8.006;2023-09-19T15:23:35;25.30;38.80
30520;DHT22;17300;50.374;8.006;2023-09-19T15:26:04;25.20;38.70
30520;DHT22;17300;50.374;8.006;2023-09-19T15:28:31;25.20;39.10
30520;DHT22;17300;50.374;8.006;2023-09-19T15:31:00;25.20;38.90
30520;DHT22;17300;50.374;8.006;2023-09-19T15:33:27;25.10;39.40
30520;DHT22;17300;50.374;8.006;2023-09-19T15:36:01;25.10;39.00
30520;DHT22;17300;50.374;8.006;2023-09-19T15:38:29;25.00;38.90
30520;DHT22;17300;50.374;8.006;2023-09-19T15:40:56;25.00;38.80
30520;DHT22;17300;50.374;8.006;2023-09-19T15:43:24;24.90;38.70
30520;DHT22;17300;50.374;8.006;2023-09-19T15:45:51;24.90;38.80
30520;DHT22;17300;50.374;8.006;2023-09-19T15:48:18;24.90;39.30
30520;DHT22;17300;50.374;8.006;2023-09-19T15:50:47;24.80;39.30